Terminal Aerodrome Forecast
Issued by NWS

Home | Current Version | Previous Version | Text Only | Print | Product List | Glossary On
Versions: 1 2 3 4 5 6 7 8 9 10 11 12 13 14
000
FTUS42 KTBW 300531
TAFPGD
TAF
KPGD 300531Z 3006/3106 11007KT P6SM SCT020 BKN080
     FM301400 15007KT P6SM VCSH SCT025 BKN035 OVC080
     FM301800 18010KT P6SM VCTS SCT025CB BKN035 OVC080
      TEMPO 3020/3023 5SM TSRA SCT020CB OVC030
     FM310000 18006KT P6SM VCTS SCT035CB OVC050=

USA.gov is the U.S. government's official web portal to all federal, state and local government web resources and services.